Time;durP1;ratioP1;P1;durP2;ratioP2;P2;SDS_P1;SDS_P2;PMS_P1;PMS_P2;Temp;Humidity;BMP_temperature;BMP_pressure;BME280_temperature;BME280_humidity;BME280_pressure;Samples;Min_cycle;Max_cycle;Signal;HPM_P1;HPM_P2
2022/11/04 00:00:18;;;;;;;;;2.00;0.25;;;;;11.40;72.80;100086.41;4935794;28;45305;-76
2022/11/04 00:02:43;;;;;;;;;1.00;1.00;;;;;11.43;73.11;100082.81;4935310;28;46419;-76
2022/11/04 00:05:08;;;;;;;;;2.00;1.00;;;;;11.42;72.57;100066.34;4934745;28;72848;-75
2022/11/04 00:12:23;;;;;;;;;2.75;1.00;;;;;11.45;73.20;100056.69;4935692;28;45394;-75
2022/11/04 00:13:03;;;;;;;;;0.00;0.00;;;;;11.45;73.15;100056.69;4935315;28;46225;-75
2022/11/04 00:18:12;;;;;;;;;0.25;0.00;;;;;11.39;73.33;100061.25;4935242;28;45396;-76
2022/11/04 00:28:53;;;;;;;;;1.00;0.50;;;;;11.34;73.51;100050.16;4961630;28;45332;-76
2022/11/04 00:34:02;;;;;;;;;1.25;0.00;;;;;11.30;73.59;100051.22;4989086;28;45455;-76
2022/11/04 00:36:27;;;;;;;;;1.75;1.00;;;;;11.30;73.64;100043.41;4974644;28;72832;-75
2022/11/04 00:38:53;;;;;;;;;3.00;1.00;;;;;11.31;73.57;100046.84;4975962;28;45348;-75
2022/11/04 00:41:28;;;;;;;;;0.75;0.00;;;;;11.33;73.72;100040.66;4976230;28;45380;-75
2022/11/04 00:43:56;;;;;;;;;1.00;0.00;;;;;11.37;73.47;100047.44;4976155;28;46617;-76
2022/11/04 00:46:21;;;;;;;;;1.75;0.00;;;;;11.37;73.34;100044.84;4975807;28;45271;-75
2022/11/04 00:48:47;;;;;;;;;0.00;0.00;;;;;11.38;73.71;100036.09;4957830;28;69481;-75
2022/11/04 00:51:12;;;;;;;;;0.75;0.75;;;;;11.40;73.33;100031.69;4958794;28;45488;-75
2022/11/04 00:53:38;;;;;;;;;0.75;0.75;;;;;11.42;73.57;100031.59;4975914;28;47161;-76
2022/11/04 00:56:03;;;;;;;;;1.00;0.25;;;;;11.40;73.32;100028.19;4974671;28;72863;-76
2022/11/04 00:58:29;;;;;;;;;0.00;0.00;;;;;11.38;73.42;100027.44;4976066;28;45455;-75
2022/11/04 01:00:54;;;;;;;;;0.75;0.75;;;;;11.38;73.46;100017.00;4975575;28;45282;-76
2022/11/04 01:03:19;;;;;;;;;0.00;0.00;;;;;11.41;73.93;100035.13;4975018;28;68750;-76
2022/11/04 01:05:45;;;;;;;;;0.00;0.00;;;;;11.44;73.66;100019.38;4975612;28;58258;-76
2022/11/04 01:08:10;;;;;;;;;2.75;0.00;;;;;11.45;73.19;100015.00;4975139;28;62970;-76
2022/11/04 01:10:43;;;;;;;;;0.00;0.00;;;;;11.46;73.57;100014.06;4975388;28;55798;-76
2022/11/04 01:13:08;;;;;;;;;1.50;1.00;;;;;11.45;73.49;100008.00;4959374;28;47247;-75
2022/11/04 01:15:35;;;;;;;;;5.50;1.75;;;;;11.45;74.28;100017.59;4957931;28;45458;-76
2022/11/04 01:18:01;;;;;;;;;1.00;0.00;;;;;11.42;74.16;100006.41;4976040;28;45438;-76
2022/11/04 01:20:26;;;;;;;;;1.00;1.00;;;;;11.43;74.36;100004.63;4975134;28;57937;-76
2022/11/04 01:22:51;;;;;;;;;2.00;0.00;;;;;11.39;74.38;100001.31;4974635;28;74563;-75
2022/11/04 01:25:17;;;;;;;;;1.25;0.00;;;;;11.36;75.00;100003.19;4975699;28;45354;-76
2022/11/04 01:27:42;;;;;;;;;2.00;0.00;;;;;11.35;74.86;100007.56;4975741;28;45424;-76
2022/11/04 01:30:09;;;;;;;;;0.50;0.00;;;;;11.34;74.73;100013.69;4975281;28;45410;-75
2022/11/04 01:32:34;;;;;;;;;2.00;1.00;;;;;11.33;74.66;100001.59;4975615;28;46107;-76
2022/11/04 01:34:59;;;;;;;;;3.00;0.00;;;;;11.31;75.00;99992.13;4974945;28;61991;-76
2022/11/04 01:37:25;;;;;;;;;3.00;0.00;;;;;11.26;74.43;100002.75;4975353;28;45227;-75
2022/11/04 01:39:50;;;;;;;;;1.00;0.00;;;;;11.26;74.57;99996.72;4958308;28;67912;-75
2022/11/04 01:42:20;;;;;;;;;1.50;0.75;;;;;11.23;74.59;99992.47;4974474;28;75850;-76
2022/11/04 01:44:54;;;;;;;;;0.75;0.00;;;;;11.23;74.29;99984.66;4975027;28;45766;-76
2022/11/04 01:47:29;;;;;;;;;1.00;0.00;;;;;11.22;74.28;99989.03;4974314;28;45458;-76
2022/11/04 01:50:05;;;;;;;;;2.50;0.00;;;;;11.23;74.55;99992.47;4977269;28;45355;-76
2022/11/04 01:52:46;;;;;;;;;2.00;0.75;;;;;11.19;74.16;99988.31;4977576;28;45496;-76
2022/11/04 01:55:26;;;;;;;;;2.25;1.00;;;;;11.16;74.14;99972.81;4977547;28;45664;-76
2022/11/04 01:57:55;;;;;;;;;4.75;0.50;;;;;11.19;74.46;99973.50;4978322;28;45370;-75
2022/11/04 02:00:20;;;;;;;;;0.25;0.25;;;;;11.19;73.77;99964.88;4961173;28;45424;-75
2022/11/04 02:03:28;;;;;;;;;0.50;0.50;;;;;11.16;74.02;99957.19;4960873;28;47603;-77
2022/11/04 02:05:54;;;;;;;;;0.00;0.00;;;;;11.12;74.25;99966.88;4921307;28;45790;-76
2022/11/04 02:08:20;;;;;;;;;4.25;0.00;;;;;11.14;73.93;99974.63;4921389;28;45479;-76
2022/11/04 02:10:51;;;;;;;;;0.00;0.00;;;;;11.13;73.99;99988.59;4936714;28;68826;-76
2022/11/04 02:13:17;;;;;;;;;0.25;0.00;;;;;11.14;73.99;99978.06;4936918;28;47146;-75
2022/11/04 02:16:10;;;;;;;;;1.00;1.00;;;;;11.15;73.86;99964.16;4921225;28;45562;-76
2022/11/04 02:19:01;;;;;;;;;2.75;0.00;;;;;11.12;73.63;99953.03;4937401;28;45341;-76
2022/11/04 02:21:49;;;;;;;;;1.00;0.00;;;;;11.14;73.91;99956.41;4937161;28;45600;-76
2022/11/04 02:24:24;;;;;;;;;0.00;0.00;;;;;11.12;73.68;99958.22;4937153;28;47197;-76
2022/11/04 02:26:59;;;;;;;;;0.00;0.00;;;;;11.16;73.78;99951.97;4920885;28;45384;-75
2022/11/04 02:29:43;;;;;;;;;1.00;0.00;;;;;11.14;73.98;99952.03;4937204;28;45577;-76
2022/11/04 02:32:36;;;;;;;;;3.50;1.00;;;;;11.16;73.78;99959.78;4921023;28;45558;-76
2022/11/04 02:35:08;;;;;;;;;2.00;0.00;;;;;11.19;73.66;99959.66;4936895;28;45438;-75
2022/11/04 02:37:55;;;;;;;;;1.00;0.00;;;;;11.19;73.70;99959.66;4920789;28;45386;-75
2022/11/04 02:40:40;;;;;;;;;0.00;0.00;;;;;11.18;73.58;99963.16;4924466;28;45518;-76
2022/11/04 02:43:22;;;;;;;;;0.00;0.00;;;;;11.18;73.30;99956.22;4976579;28;45395;-75
2022/11/04 02:45:49;;;;;;;;;0.25;0.00;;;;;11.17;73.41;99956.28;4977897;28;46684;-76
2022/11/04 02:48:23;;;;;;;;;0.25;0.25;;;;;11.20;74.09;99959.59;4976627;28;45692;-75
2022/11/04 02:51:06;;;;;;;;;2.00;0.50;;;;;11.24;73.70;99960.31;4976729;28;45365;-75
2022/11/04 02:53:36;;;;;;;;;3.00;0.50;;;;;11.24;73.40;99950.72;4977997;28;45427;-75
2022/11/04 02:56:03;;;;;;;;;0.00;0.00;;;;;11.27;73.84;99951.50;4975939;28;46603;-75
2022/11/04 02:58:37;;;;;;;;;5.00;0.00;;;;;11.29;73.39;99960.09;4977660;28;45333;-76
2022/11/04 03:01:04;;;;;;;;;1.00;1.00;;;;;11.29;73.75;99953.13;4976017;28;45345;-76
2022/11/04 03:03:44;;;;;;;;;9.00;0.00;;;;;11.31;73.48;99951.31;4960252;28;45777;-76
2022/11/04 03:06:12;;;;;;;;;1.25;0.00;;;;;11.32;73.77;99944.34;4976207;28;45514;-76
2022/11/04 03:08:40;;;;;;;;;2.50;0.00;;;;;11.33;73.28;99938.19;4975255;28;73054;-76
2022/11/04 03:11:17;;;;;;;;;1.00;0.00;;;;;11.35;73.65;99937.22;4976076;28;45388;-76
2022/11/04 03:13:51;;;;;;;;;0.75;0.00;;;;;11.34;73.49;99935.53;4960186;28;45476;-76
2022/11/04 03:16:19;;;;;;;;;5.50;0.00;;;;;11.32;73.55;99929.53;4977283;28;47059;-75
2022/11/04 03:19:17;;;;;;;;;0.00;0.00;;;;;11.38;73.39;99938.84;4976190;28;45481;-75
2022/11/04 03:21:50;;;;;;;;;0.25;0.00;;;;;11.37;73.43;99922.38;4971923;28;45426;-76
2022/11/04 03:24:15;;;;;;;;;1.25;1.00;;;;;11.42;73.40;99928.22;4976166;28;45455;-76
2022/11/04 03:26:48;;;;;;;;;1.00;0.00;;;;;11.45;73.08;99926.38;4975878;28;73724;-75
2022/11/04 03:29:25;;;;;;;;;0.00;0.00;;;;;11.47;73.06;99924.56;4977329;28;45368;-75
2022/11/04 03:32:02;;;;;;;;;0.00;0.00;;;;;11.49;73.09;99928.78;4977303;28;45325;-76
2022/11/04 03:34:27;;;;;;;;;1.75;0.00;;;;;11.47;72.86;99928.00;4960013;28;45475;-76
2022/11/04 03:36:53;;;;;;;;;0.00;0.00;;;;;11.47;72.81;99914.97;4959397;28;46412;-76
2022/11/04 03:39:18;;;;;;;;;1.50;0.00;;;;;11.48;73.07;99921.00;4959193;28;45515;-76
2022/11/04 03:41:55;;;;;;;;;0.25;0.00;;;;;11.48;72.87;99915.81;4976371;28;62792;-76
2022/11/04 03:44:21;;;;;;;;;0.00;0.00;;;;;11.46;72.85;99909.81;4975913;28;45357;-76
2022/11/04 03:46:46;;;;;;;;;0.50;0.00;;;;;11.47;72.38;99907.16;4975731;28;45443;-75
2022/11/04 03:49:13;;;;;;;;;3.00;0.00;;;;;11.48;72.37;99908.84;4976193;28;67328;-76
2022/11/04 03:51:38;;;;;;;;;1.00;0.00;;;;;11.46;72.61;99900.25;4975886;28;45413;-75
2022/11/04 03:54:04;;;;;;;;;1.00;0.00;;;;;11.46;72.56;99912.44;4975738;28;69309;-75
2022/11/04 03:57:03;;;;;;;;;0.00;0.00;;;;;11.47;72.58;99914.13;4974486;28;46402;-76
2022/11/04 03:59:43;;;;;;;;;0.75;0.00;;;;;11.48;72.54;99914.06;4956295;28;45658;-76
2022/11/04 04:02:16;;;;;;;;;1.50;0.00;;;;;11.50;72.25;99920.06;4976906;28;45354;-75
2022/11/04 04:05:05;;;;;;;;;1.00;0.00;;;;;11.54;72.23;99931.19;4975781;28;45276;-76
2022/11/04 04:07:42;;;;;;;;;0.00;0.00;;;;;11.52;72.47;99925.19;4959000;28;46206;-75
2022/11/04 04:13:03;;;;;;;;;1.00;0.00;;;;;11.51;72.38;99937.34;4974734;28;45439;-76
2022/11/04 04:15:44;;;;;;;;;0.00;0.00;;;;;11.49;72.23;99931.38;4959077;28;45560;-75
2022/11/04 04:18:13;;;;;;;;;1.00;0.25;;;;;11.53;72.20;99934.69;4975259;28;46684;-76
2022/11/04 04:20:39;;;;;;;;;0.75;0.00;;;;;11.48;72.27;99926.22;4975225;28;45291;-76
2022/11/04 04:28:56;;;;;;;;;1.00;0.00;;;;;11.40;72.25;99932.66;4975318;28;45432;-76
2022/11/04 04:34:07;;;;;;;;;0.00;0.00;;;;;11.37;72.36;99930.19;4976696;28;45231;-76
2022/11/04 04:36:40;;;;;;;;;2.00;0.00;;;;;11.36;72.43;99933.69;4958287;28;59071;-76
2022/11/04 04:44:58;;;;;;;;;1.75;0.50;;;;;11.35;72.11;99941.59;4955853;28;45349;-76
2022/11/04 04:47:26;;;;;;;;;0.00;0.00;;;;;11.28;72.32;99943.63;4955768;28;45524;-76
2022/11/04 04:49:53;;;;;;;;;2.00;0.00;;;;;11.24;72.38;99935.09;4955517;28;45555;-76
2022/11/04 04:52:19;;;;;;;;;2.00;0.00;;;;;11.22;72.69;99936.09;4955070;28;45361;-76
2022/11/04 04:54:44;;;;;;;;;0.00;0.00;;;;;11.23;72.83;99941.19;4956779;28;45344;-76
2022/11/04 04:57:10;;;;;;;;;0.00;0.00;;;;;11.27;72.69;99944.53;4965106;28;69141;-76
2022/11/04 04:59:35;;;;;;;;;0.00;0.00;;;;;11.26;72.63;99942.00;4975843;28;46763;-76
2022/11/04 05:02:00;;;;;;;;;0.25;0.00;;;;;11.24;72.35;99947.28;4975149;28;73271;-75
2022/11/04 05:04:26;;;;;;;;;0.00;0.00;;;;;11.23;72.38;99946.41;4975429;28;59327;-75
2022/11/04 05:06:51;;;;;;;;;0.00;0.00;;;;;11.21;72.57;99947.41;4974968;28;67089;-76
2022/11/04 05:09:16;;;;;;;;;0.00;0.00;;;;;11.17;72.33;99941.47;4974740;28;75643;-75
2022/11/04 05:11:41;;;;;;;;;0.00;0.00;;;;;11.19;72.50;99949.22;4974845;28;73423;-76
2022/11/04 05:14:07;;;;;;;;;0.00;0.00;;;;;11.18;72.36;99950.13;4976008;28;45424;-76
2022/11/04 05:16:32;;;;;;;;;0.75;0.00;;;;;11.18;72.51;99952.75;4975209;28;65610;-76
2022/11/04 05:18:57;;;;;;;;;0.25;0.00;;;;;11.15;72.35;99958.94;4973377;28;73065;-76
2022/11/04 05:21:23;;;;;;;;;0.00;0.00;;;;;11.15;72.48;99955.50;4974640;28;68058;-76
2022/11/04 05:23:48;;;;;;;;;0.25;0.00;;;;;11.16;72.67;99951.97;4976519;28;70232;-76
2022/11/04 05:26:14;;;;;;;;;6.75;0.00;;;;;11.15;72.54;99955.50;4978895;28;53915;-75
2022/11/04 05:28:39;;;;;;;;;1.75;0.00;;;;;11.14;72.46;99953.78;4979003;28;46181;-76
2022/11/04 05:31:05;;;;;;;;;0.00;0.00;;;;;11.10;72.69;99957.44;4979057;28;45352;-76
2022/11/04 05:33:31;;;;;;;;;0.00;0.00;;;;;11.10;72.68;99955.69;4961667;28;45355;-76
2022/11/04 05:36:22;;;;;;;;;3.00;0.00;;;;;11.10;72.70;99953.09;4978152;28;57330;-75
2022/11/04 05:38:51;;;;;;;;;2.00;0.00;;;;;11.07;73.04;99948.03;4978743;28;46755;-76
2022/11/04 05:41:26;;;;;;;;;0.25;0.00;;;;;11.06;72.54;99942.88;4974156;28;45392;-76
2022/11/04 05:43:56;;;;;;;;;0.00;0.00;;;;;11.03;73.02;99946.44;4994147;28;45351;-76
2022/11/04 05:46:22;;;;;;;;;0.00;0.00;;;;;11.04;72.90;99958.56;4977788;28;45377;-76
2022/11/04 05:48:48;;;;;;;;;1.00;0.00;;;;;10.99;72.91;99969.16;4977637;28;46700;-76
2022/11/04 05:51:22;;;;;;;;;1.50;0.00;;;;;11.00;73.12;99962.22;4977558;28;70202;-76
2022/11/04 05:53:48;;;;;;;;;0.00;0.00;;;;;11.00;72.96;99965.66;4977684;28;45584;-76
2022/11/04 05:56:14;;;;;;;;;0.00;0.00;;;;;10.99;72.92;99970.94;4978483;28;45508;-75
2022/11/04 05:58:39;;;;;;;;;2.00;0.00;;;;;11.03;73.13;99980.28;4977518;28;71118;-76
2022/11/04 06:01:29;;;;;;;;;0.00;0.00;;;;;11.06;72.88;99985.38;4978134;28;52652;-75
2022/11/04 06:03:55;;;;;;;;;2.00;0.25;;;;;11.05;73.31;99981.09;4978709;28;45343;-76
2022/11/04 06:06:21;;;;;;;;;0.50;0.00;;;;;11.04;73.09;99990.66;4978502;28;45268;-76
2022/11/04 06:08:47;;;;;;;;;5.25;0.00;;;;;11.05;73.02;99988.91;4977054;28;46308;-76
2022/11/04 06:11:12;;;;;;;;;3.00;0.00;;;;;11.04;73.13;99988.06;4977561;28;65650;-76
2022/11/04 06:13:37;;;;;;;;;2.00;0.50;;;;;11.07;73.30;99994.03;4976248;28;67015;-76
2022/11/04 06:16:03;;;;;;;;;0.00;0.00;;;;;11.08;72.74;100001.78;4978407;28;46216;-76
2022/11/04 06:18:28;;;;;;;;;0.00;0.00;;;;;11.11;72.85;100000.81;4976850;28;75654;-75
2022/11/04 06:21:30;;;;;;;;;0.00;0.00;;;;;11.13;72.79;100004.22;4977123;28;71238;-75
2022/11/04 06:23:56;;;;;;;;;1.00;0.00;;;;;11.15;72.82;100015.41;4921347;28;45418;-76
2022/11/04 06:26:26;;;;;;;;;1.00;0.00;;;;;11.16;73.03;100010.13;4937236;28;45619;-76
2022/11/04 06:28:51;;;;;;;;;0.75;0.00;;;;;11.19;73.04;100016.97;4920976;28;45458;-76
2022/11/04 06:31:17;;;;;;;;;1.00;0.00;;;;;11.23;72.74;100016.75;4920859;28;45578;-76
2022/11/04 06:33:43;;;;;;;;;1.25;0.00;;;;;11.28;72.54;100016.56;4936804;28;45404;-76
2022/11/04 06:36:11;;;;;;;;;0.25;0.00;;;;;11.28;72.40;100021.78;4936208;28;45456;-76
2022/11/04 06:38:37;;;;;;;;;0.75;0.00;;;;;11.28;72.37;100018.34;4920843;28;46597;-76
2022/11/04 06:41:04;;;;;;;;;2.00;0.00;;;;;11.26;72.42;100015.78;4936851;28;45514;-75
2022/11/04 06:43:29;;;;;;;;;0.00;0.00;;;;;11.26;72.43;100018.41;4937016;28;45409;-76
2022/11/04 06:46:00;;;;;;;;;0.00;0.00;;;;;11.26;72.56;100015.78;4937012;28;45377;-76
2022/11/04 06:48:25;;;;;;;;;0.00;0.00;;;;;11.30;72.41;100019.13;4936369;28;47123;-76
2022/11/04 06:50:51;;;;;;;;;1.25;0.00;;;;;11.36;72.67;100026.66;4920645;28;45309;-75
2022/11/04 06:53:16;;;;;;;;;0.00;0.00;;;;;11.37;72.29;100029.19;4936829;28;45372;-76
2022/11/04 06:55:42;;;;;;;;;1.75;0.00;;;;;11.40;72.39;100025.59;4936895;28;45445;-76
2022/11/04 06:58:08;;;;;;;;;2.00;0.00;;;;;11.46;72.16;100027.97;4940832;28;46167;-76
2022/11/04 07:00:33;;;;;;;;;0.25;0.00;;;;;11.46;71.92;100034.91;4958172;28;45562;-76
2022/11/04 07:02:59;;;;;;;;;2.00;0.00;;;;;11.42;72.09;100031.59;4957000;28;66255;-76
2022/11/04 07:05:24;;;;;;;;;1.00;0.00;;;;;11.40;72.06;100039.50;4957224;28;69427;-76
2022/11/04 07:07:49;;;;;;;;;1.75;0.00;;;;;11.40;72.02;100043.84;4957123;28;71980;-76
2022/11/04 07:10:16;;;;;;;;;1.00;0.00;;;;;11.39;72.12;100042.16;4957159;28;63204;-75
2022/11/04 07:12:41;;;;;;;;;0.50;0.00;;;;;11.37;72.03;100052.66;4958280;28;45443;-76
2022/11/04 07:15:07;;;;;;;;;0.00;0.00;;;;;11.39;72.29;100061.25;4958095;28;45355;-75
2022/11/04 07:17:32;;;;;;;;;0.00;0.00;;;;;11.38;72.00;100056.09;4957588;28;45332;-76
2022/11/04 07:19:58;;;;;;;;;2.25;0.50;;;;;11.39;71.83;100058.63;4956896;28;71605;-76
2022/11/04 07:22:23;;;;;;;;;0.00;0.00;;;;;11.40;71.83;100062.09;4957844;28;45286;-75
2022/11/04 07:24:48;;;;;;;;;0.00;0.00;;;;;11.41;71.91;100063.78;4956945;28;70564;-75
2022/11/04 07:27:14;;;;;;;;;2.25;0.25;;;;;11.42;72.05;100075.88;4957027;28;62423;-76
2022/11/04 07:29:39;;;;;;;;;0.00;0.00;;;;;11.43;71.59;100073.22;4956766;28;71539;-75
2022/11/04 07:32:05;;;;;;;;;2.75;0.00;;;;;11.39;71.81;100079.47;4955478;28;62841;-76
2022/11/04 07:34:30;;;;;;;;;0.00;0.00;;;;;11.41;72.15;100087.25;4957522;28;49373;-76
2022/11/04 07:36:55;;;;;;;;;1.00;0.00;;;;;11.40;71.89;100093.34;4956494;28;69937;-76
2022/11/04 07:39:21;;;;;;;;;1.00;0.00;;;;;11.42;71.79;100094.13;4957227;28;61298;-76
2022/11/04 07:41:46;;;;;;;;;1.25;0.00;;;;;11.45;71.77;100098.38;4976207;28;67488;-76
2022/11/04 07:44:12;;;;;;;;;6.00;0.00;;;;;11.41;71.46;100093.28;4976242;28;70372;-76
2022/11/04 07:46:37;;;;;;;;;0.00;0.00;;;;;11.49;71.95;100108.59;4976498;28;47081;-76
2022/11/04 07:49:03;;;;;;;;;0.25;0.00;;;;;11.55;71.51;100118.78;4976988;28;45329;-76
2022/11/04 07:51:31;;;;;;;;;0.25;0.00;;;;;11.59;71.63;100125.56;4975886;28;45397;-75
2022/11/04 07:53:56;;;;;;;;;2.50;0.00;;;;;11.61;71.48;100128.94;4975726;28;45371;-76
2022/11/04 07:56:22;;;;;;;;;0.75;0.00;;;;;11.64;71.19;100135.75;4976722;28;45345;-76
2022/11/04 07:58:48;;;;;;;;;0.75;0.50;;;;;11.65;71.56;100132.25;4976731;28;45359;-76
2022/11/04 08:01:18;;;;;;;;;2.00;0.00;;;;;11.70;71.09;100139.88;4976407;28;45301;-76
2022/11/04 08:03:43;;;;;;;;;0.50;0.25;;;;;11.73;71.51;100142.34;4975633;28;45348;-76
2022/11/04 08:06:10;;;;;;;;;0.25;0.00;;;;;11.75;71.06;100140.53;4976611;28;46263;-76
2022/11/04 08:08:36;;;;;;;;;3.00;1.75;;;;;11.84;71.22;100145.34;4976498;28;45754;-77
2022/11/04 08:11:05;;;;;;;;;2.00;0.00;;;;;11.89;70.70;100160.81;4976689;28;45452;-76
2022/11/04 08:13:32;;;;;;;;;2.00;0.00;;;;;11.91;71.06;100157.22;4976626;28;45430;-76
2022/11/04 08:16:01;;;;;;;;;0.00;0.00;;;;;11.93;70.54;100160.63;4976264;28;46337;-76
2022/11/04 08:18:26;;;;;;;;;1.50;0.00;;;;;11.96;70.68;100164.84;4959117;28;45816;-76
2022/11/04 08:20:52;;;;;;;;;0.50;0.00;;;;;12.04;70.45;100167.97;4975627;28;64132;-75
2022/11/04 08:23:18;;;;;;;;;0.00;0.00;;;;;12.11;70.53;100165.94;4976554;28;45326;-76
2022/11/04 08:25:45;;;;;;;;;0.00;0.00;;;;;12.13;70.41;100167.56;4958758;28;45355;-76
2022/11/04 08:28:16;;;;;;;;;1.00;1.00;;;;;12.18;70.00;100176.06;4976326;28;45348;-75
2022/11/04 08:31:14;;;;;;;;;3.00;0.00;;;;;12.24;70.05;100182.75;4959540;28;45446;-76
2022/11/04 08:33:40;;;;;;;;;0.00;0.00;;;;;12.29;69.62;100185.97;4918954;28;45547;-75
2022/11/04 08:36:10;;;;;;;;;0.00;0.00;;;;;12.36;69.28;100184.78;4935183;28;45423;-76
2022/11/04 08:38:36;;;;;;;;;2.00;0.75;;;;;12.42;69.38;100183.66;4935120;28;45666;-76
2022/11/04 08:41:03;;;;;;;;;0.00;0.00;;;;;12.55;69.10;100189.19;4919131;28;45506;-76
2022/11/04 08:43:29;;;;;;;;;0.00;0.00;;;;;12.58;68.38;100195.09;4918853;28;45495;-75
2022/11/04 08:45:55;;;;;;;;;1.50;0.00;;;;;12.58;68.98;100205.56;4935012;28;46424;-75
2022/11/04 08:48:20;;;;;;;;;0.00;0.00;;;;;12.61;68.90;100212.41;4934956;28;47349;-76
2022/11/04 08:50:52;;;;;;;;;1.00;0.00;;;;;12.68;68.62;100215.56;4919101;28;45356;-76
2022/11/04 08:53:18;;;;;;;;;1.50;0.00;;;;;12.79;69.13;100223.75;4935190;28;45498;-76
2022/11/04 08:55:44;;;;;;;;;1.75;1.00;;;;;12.86;67.91;100229.56;4934477;28;61470;-76
2022/11/04 08:58:09;;;;;;;;;1.00;0.00;;;;;12.88;67.88;100238.16;4934790;28;46531;-75
2022/11/04 09:00:35;;;;;;;;;2.00;0.75;;;;;12.85;67.53;100247.00;4937692;28;60671;-75
2022/11/04 09:03:00;;;;;;;;;2.00;0.00;;;;;12.92;68.20;100256.22;4938410;28;45406;-76
2022/11/04 09:05:25;;;;;;;;;0.50;0.00;;;;;13.02;67.60;100251.44;4938250;28;47431;-75
2022/11/04 09:07:51;;;;;;;;;2.75;1.00;;;;;13.11;67.31;100256.25;4937683;28;60588;-76
2022/11/04 09:10:16;;;;;;;;;0.50;0.00;;;;;13.13;67.47;100257.00;4962718;28;69160;-76
2022/11/04 09:12:42;;;;;;;;;0.00;0.00;;;;;13.19;67.13;100261.09;4979047;28;45332;-76
2022/11/04 09:15:08;;;;;;;;;0.25;0.00;;;;;13.24;67.25;100269.56;4961897;28;45450;-76
2022/11/04 09:17:33;;;;;;;;;0.00;0.00;;;;;13.27;66.96;100274.63;4979090;28;45464;-75
2022/11/04 09:19:59;;;;;;;;;0.00;0.00;;;;;13.31;66.45;100276.22;4978454;28;64575;-76
2022/11/04 09:22:24;;;;;;;;;1.00;0.00;;;;;13.34;66.10;100278.69;4978752;28;52408;-76
2022/11/04 09:24:49;;;;;;;;;0.50;0.00;;;;;13.40;66.22;100282.78;4978162;28;70520;-76
2022/11/04 09:27:15;;;;;;;;;0.00;0.00;;;;;13.45;65.87;100290.41;4978396;28;68633;-76
2022/11/04 09:29:40;;;;;;;;;0.00;0.00;;;;;13.55;66.03;100300.31;4961688;28;45406;-76
2022/11/04 09:32:07;;;;;;;;;1.75;0.00;;;;;13.72;66.11;100293.44;4979032;28;45420;-75
2022/11/04 09:34:32;;;;;;;;;3.75;0.50;;;;;13.81;66.16;100290.38;4978937;28;45500;-76
2022/11/04 09:36:58;;;;;;;;;0.75;0.00;;;;;14.01;65.08;100301.63;4978559;28;45463;-76
2022/11/04 09:39:23;;;;;;;;;0.00;0.00;;;;;14.04;65.08;100298.84;4977950;28;69459;-76
2022/11/04 09:42:00;;;;;;;;;0.00;0.00;;;;;14.07;64.27;100312.63;4978649;28;45249;-76
2022/11/04 09:44:52;;;;;;;;;0.00;0.00;;;;;13.97;64.10;100319.25;4977596;28;47114;-76
2022/11/04 09:47:21;;;;;;;;;1.50;0.25;;;;;13.80;63.50;100317.47;4978665;28;45694;-76
2022/11/04 09:49:49;;;;;;;;;1.75;0.00;;;;;13.71;63.67;100334.44;4977736;28;45487;-75
2022/11/04 09:52:18;;;;;;;;;0.00;0.00;;;;;13.61;63.67;100335.78;4977711;28;45446;-75
2022/11/04 09:54:51;;;;;;;;;0.00;0.00;;;;;13.65;64.58;100346.97;4977591;28;46544;-76
2022/11/04 09:57:18;;;;;;;;;1.50;0.00;;;;;13.69;64.14;100338.06;4969686;28;45425;-76
2022/11/04 09:59:44;;;;;;;;;2.00;0.50;;;;;13.69;64.16;100338.06;4977449;28;45270;-75
2022/11/04 10:02:10;;;;;;;;;1.00;1.00;;;;;13.68;63.67;100347.66;4960330;28;64656;-76
2022/11/04 10:04:57;;;;;;;;;0.00;0.00;;;;;13.63;63.70;100341.81;4978430;28;46931;-76
2022/11/04 10:07:51;;;;;;;;;0.00;0.00;;;;;13.53;63.43;100353.63;4978589;28;45369;-76
2022/11/04 10:10:17;;;;;;;;;0.00;0.00;;;;;13.39;63.16;100364.75;4936086;28;45445;-76
2022/11/04 10:12:48;;;;;;;;;1.00;0.00;;;;;13.34;63.84;100366.72;4937070;28;45358;-75
2022/11/04 10:15:43;;;;;;;;;0.75;0.00;;;;;13.29;63.40;100373.88;4937301;28;45531;-75
2022/11/04 10:18:17;;;;;;;;;0.00;0.00;;;;;13.20;63.70;100379.53;4842767;29;45418;-75
2022/11/04 10:20:47;;;;;;;;;1.75;0.75;;;;;13.22;64.28;100391.59;4842859;29;45567;-76
2022/11/04 10:23:17;;;;;;;;;0.50;0.50;;;;;13.30;63.84;100396.50;4842920;29;45324;-76
2022/11/04 10:26:01;;;;;;;;;0.00;0.00;;;;;13.40;63.78;100407.41;4842412;29;46701;-76
2022/11/04 10:28:34;;;;;;;;;1.25;1.00;;;;;13.52;63.89;100406.84;4842500;29;45488;-76
2022/11/04 10:31:01;;;;;;;;;1.00;0.00;;;;;13.64;62.67;100408.03;4842793;29;45508;-75
2022/11/04 10:33:31;;;;;;;;;1.75;1.00;;;;;13.77;62.35;100414.41;4842021;29;58794;-75
2022/11/04 10:36:02;;;;;;;;;0.75;0.00;;;;;13.89;61.83;100426.03;4842549;29;47416;-76
2022/11/04 10:38:28;;;;;;;;;0.00;0.00;;;;;14.02;62.39;100428.91;4842139;29;45598;-76
2022/11/04 10:40:54;;;;;;;;;0.00;0.00;;;;;14.24;61.75;100433.97;4842186;29;45516;-75
2022/11/04 10:43:27;;;;;;;;;1.00;0.00;;;;;14.62;61.52;100439.09;4842489;29;45606;-76
2022/11/04 10:46:25;;;;;;;;;2.00;0.75;;;;;15.00;60.28;100436.28;4826985;29;47448;-76
2022/11/04 10:49:01;;;;;;;;;0.00;0.00;;;;;15.24;59.44;100440.22;4864092;29;45415;-76
2022/11/04 10:51:26;;;;;;;;;1.00;0.00;;;;;15.45;59.10;100450.50;4879766;29;45319;-76
2022/11/04 10:53:59;;;;;;;;;0.00;0.00;;;;;15.69;58.65;100450.94;4879614;28;67533;-75
2022/11/04 10:56:37;;;;;;;;;0.00;0.00;;;;;15.87;57.77;100457.00;4960141;28;45488;-76
2022/11/04 10:59:44;;;;;;;;;2.00;0.00;;;;;15.83;56.89;100464.19;4976577;28;45409;-76
2022/11/04 11:02:09;;;;;;;;;0.00;0.00;;;;;15.66;56.40;100470.31;4972123;28;45358;-76
2022/11/04 11:04:36;;;;;;;;;0.25;0.00;;;;;15.53;57.04;100468.47;4959406;28;67642;-76
2022/11/04 11:07:04;;;;;;;;;0.00;0.00;;;;;15.41;57.55;100469.94;4977507;28;45361;-76
2022/11/04 11:09:41;;;;;;;;;1.00;0.00;;;;;15.23;57.78;100479.63;4959762;28;45333;-76
2022/11/04 11:12:12;;;;;;;;;0.75;0.00;;;;;14.99;57.98;100484.38;4977554;28;45354;-76
2022/11/04 11:14:38;;;;;;;;;1.00;0.00;;;;;14.71;58.04;100477.94;4977619;28;45476;-76
2022/11/04 11:17:22;;;;;;;;;0.00;0.00;;;;;14.49;58.55;100486.81;4959944;28;46166;-76
2022/11/04 11:19:53;;;;;;;;;0.25;0.00;;;;;14.32;59.19;100494.66;4960013;28;45839;-76
2022/11/04 11:22:45;;;;;;;;;1.00;0.00;;;;;14.10;59.96;100492.22;4976855;28;45433;-76
2022/11/04 11:25:26;;;;;;;;;3.00;2.00;;;;;13.91;61.21;100500.94;4974952;28;45437;-76
2022/11/04 11:28:00;;;;;;;;;7.00;4.00;;;;;13.80;62.54;100507.56;4975975;28;46185;-76
2022/11/04 11:30:35;;;;;;;;;1.50;1.50;;;;;13.69;62.43;100506.31;4975913;28;45730;-76
2022/11/04 11:33:04;;;;;;;;;1.25;0.00;;;;;13.62;62.41;100517.97;4976081;28;45403;-76
2022/11/04 11:35:41;;;;;;;;;1.00;0.00;;;;;13.63;62.30;100514.44;4975825;28;45413;-76
2022/11/04 11:38:22;;;;;;;;;0.00;0.00;;;;;13.72;62.39;100511.41;4959086;28;47834;-76
2022/11/04 11:40:51;;;;;;;;;0.00;0.00;;;;;13.87;62.25;100519.44;4975693;28;45346;-76
2022/11/04 11:43:25;;;;;;;;;3.00;0.50;;;;;13.97;61.69;100525.97;4960251;28;45325;-76
2022/11/04 11:45:50;;;;;;;;;0.00;0.00;;;;;14.00;61.51;100530.19;4977138;28;45532;-76
2022/11/04 11:48:42;;;;;;;;;1.00;0.00;;;;;14.10;61.43;100534.09;4959366;28;46366;-75
2022/11/04 11:51:12;;;;;;;;;0.00;0.00;;;;;14.22;61.29;100536.13;4971278;28;45384;-76
2022/11/04 11:53:44;;;;;;;;;0.50;0.25;;;;;14.30;61.07;100539.25;4976673;28;45459;-76
2022/11/04 11:56:46;;;;;;;;;0.75;0.75;;;;;14.45;60.72;100561.22;4976887;28;45406;-76
2022/11/04 11:59:37;;;;;;;;;2.25;0.00;;;;;14.60;60.11;100549.19;4919563;28;46462;-76
2022/11/04 12:02:30;;;;;;;;;1.00;0.25;;;;;14.76;59.74;100557.13;4919697;28;45717;-76
2022/11/04 12:04:56;;;;;;;;;0.75;0.50;;;;;14.87;59.30;100565.31;4935751;28;45322;-76
2022/11/04 12:07:46;;;;;;;;;1.75;1.00;;;;;14.80;58.54;100573.56;4919506;28;45493;-76
2022/11/04 12:10:27;;;;;;;;;1.00;1.00;;;;;14.61;58.89;100578.84;4935479;28;45698;-76
2022/11/04 12:13:19;;;;;;;;;2.00;1.00;;;;;14.63;58.74;100585.69;4919677;28;46367;-76
2022/11/04 12:16:08;;;;;;;;;2.25;1.75;;;;;15.06;59.01;100591.47;4935073;28;45462;-76
2022/11/04 12:18:48;;;;;;;;;1.75;1.50;;;;;15.77;56.89;100598.38;4935828;28;45446;-77